sensor_id;sensor_type;location;lat;lon;timestamp;P1;durP1;ratioP1;P2;durP2;ratioP2
74100;SDS011;62462;52.530;21.682;2023-03-29T00:01:06;22.83;;;8.97;;
74100;SDS011;62462;52.530;21.682;2023-03-29T00:03:34;27.80;;;9.70;;
74100;SDS011;62462;52.530;21.682;2023-03-29T00:06:01;14.53;;;5.67;;
74100;SDS011;62462;52.530;21.682;2023-03-29T00:08:29;13.07;;;4.30;;
74100;SDS011;62462;52.530;21.682;2023-03-29T00:10:58;10.17;;;3.93;;
74100;SDS011;62462;52.530;21.682;2023-03-29T00:13:25;11.27;;;4.27;;
74100;SDS011;62462;52.530;21.682;2023-03-29T00:15:54;8.93;;;4.00;;
74100;SDS011;62462;52.530;21.682;2023-03-29T00:18:21;16.67;;;5.53;;
74100;SDS011;62462;52.530;21.682;2023-03-29T00:20:57;21.77;;;8.07;;
74100;SDS011;62462;52.530;21.682;2023-03-29T00:23:24;11.37;;;4.27;;
74100;SDS011;62462;52.530;21.682;2023-03-29T00:25:53;10.03;;;3.37;;
74100;SDS011;62462;52.530;21.682;2023-03-29T00:28:20;10.63;;;4.07;;
74100;SDS011;62462;52.530;21.682;2023-03-29T00:30:46;7.30;;;2.90;;
74100;SDS011;62462;52.530;21.682;2023-03-29T00:33:14;10.60;;;3.43;;
74100;SDS011;62462;52.530;21.682;2023-03-29T00:35:40;9.33;;;4.20;;
74100;SDS011;62462;52.530;21.682;2023-03-29T00:38:06;8.67;;;3.43;;
74100;SDS011;62462;52.530;21.682;2023-03-29T00:40:33;9.47;;;3.50;;
74100;SDS011;62462;52.530;21.682;2023-03-29T00:43:07;7.50;;;3.20;;
74100;SDS011;62462;52.530;21.682;2023-03-29T00:45:36;5.90;;;2.70;;
74100;SDS011;62462;52.530;21.682;2023-03-29T00:48:12;6.37;;;3.13;;
74100;SDS011;62462;52.530;21.682;2023-03-29T00:50:47;8.53;;;3.43;;
74100;SDS011;62462;52.530;21.682;2023-03-29T00:53:25;10.03;;;4.10;;
74100;SDS011;62462;52.530;21.682;2023-03-29T00:58:56;12.63;;;4.40;;
74100;SDS011;62462;52.530;21.682;2023-03-29T01:01:50;11.27;;;5.00;;
74100;SDS011;62462;52.530;21.682;2023-03-29T01:09:43;12.73;;;5.03;;
74100;SDS011;62462;52.530;21.682;2023-03-29T01:12:17;16.35;;;7.32;;
74100;SDS011;62462;52.530;21.682;2023-03-29T01:15:20;21.77;;;7.47;;
74100;SDS011;62462;52.530;21.682;2023-03-29T01:17:42;15.43;;;5.93;;
74100;SDS011;62462;52.530;21.682;2023-03-29T01:20:15;22.30;;;7.63;;
74100;SDS011;62462;52.530;21.682;2023-03-29T01:23:04;13.77;;;5.43;;
74100;SDS011;62462;52.530;21.682;2023-03-29T01:29:07;11.63;;;4.70;;
74100;SDS011;62462;52.530;21.682;2023-03-29T01:31:35;12.30;;;4.67;;
74100;SDS011;62462;52.530;21.682;2023-03-29T01:34:14;9.17;;;4.07;;
74100;SDS011;62462;52.530;21.682;2023-03-29T01:36:50;15.40;;;5.90;;
74100;SDS011;62462;52.530;21.682;2023-03-29T01:39:24;13.83;;;5.07;;
74100;SDS011;62462;52.530;21.682;2023-03-29T01:45:08;14.97;;;6.37;;
74100;SDS011;62462;52.530;21.682;2023-03-29T01:47:41;11.63;;;4.97;;
74100;SDS011;62462;52.530;21.682;2023-03-29T01:52:44;19.40;;;6.40;;
74100;SDS011;62462;52.530;21.682;2023-03-29T01:55:19;15.03;;;6.07;;
74100;SDS011;62462;52.530;21.682;2023-03-29T01:57:52;15.03;;;6.00;;
74100;SDS011;62462;52.530;21.682;2023-03-29T02:00:21;14.87;;;5.70;;
74100;SDS011;62462;52.530;21.682;2023-03-29T02:02:52;12.17;;;5.47;;
74100;SDS011;62462;52.530;21.682;2023-03-29T02:05:23;14.27;;;6.20;;
74100;SDS011;62462;52.530;21.682;2023-03-29T02:07:52;17.07;;;5.97;;
74100;SDS011;62462;52.530;21.682;2023-03-29T02:10:20;12.33;;;5.50;;
74100;SDS011;62462;52.530;21.682;2023-03-29T02:12:47;12.00;;;5.07;;
74100;SDS011;62462;52.530;21.682;2023-03-29T02:15:15;14.70;;;5.87;;
74100;SDS011;62462;52.530;21.682;2023-03-29T02:17:43;16.90;;;6.33;;
74100;SDS011;62462;52.530;21.682;2023-03-29T02:20:21;16.07;;;6.53;;
74100;SDS011;62462;52.530;21.682;2023-03-29T02:25:28;17.87;;;6.97;;
74100;SDS011;62462;52.530;21.682;2023-03-29T02:27:56;20.67;;;8.03;;
74100;SDS011;62462;52.530;21.682;2023-03-29T02:30:24;19.40;;;7.30;;
74100;SDS011;62462;52.530;21.682;2023-03-29T02:33:12;14.70;;;6.30;;
74100;SDS011;62462;52.530;21.682;2023-03-29T02:35:48;26.37;;;9.60;;
74100;SDS011;62462;52.530;21.682;2023-03-29T02:38:18;28.47;;;11.50;;
74100;SDS011;62462;52.530;21.682;2023-03-29T02:40:45;16.00;;;8.63;;
74100;SDS011;62462;52.530;21.682;2023-03-29T02:43:12;21.07;;;7.70;;
74100;SDS011;62462;52.530;21.682;2023-03-29T02:45:40;20.03;;;8.50;;
74100;SDS011;62462;52.530;21.682;2023-03-29T02:48:07;16.03;;;6.30;;
74100;SDS011;62462;52.530;21.682;2023-03-29T02:50:38;14.73;;;6.63;;
74100;SDS011;62462;52.530;21.682;2023-03-29T02:53:09;21.60;;;8.53;;
74100;SDS011;62462;52.530;21.682;2023-03-29T02:55:41;21.60;;;9.57;;
74100;SDS011;62462;52.530;21.682;2023-03-29T02:58:07;15.50;;;5.90;;
74100;SDS011;62462;52.530;21.682;2023-03-29T03:00:36;28.30;;;9.47;;
74100;SDS011;62462;52.530;21.682;2023-03-29T03:03:09;35.00;;;11.80;;
74100;SDS011;62462;52.530;21.682;2023-03-29T03:05:36;23.20;;;9.07;;
74100;SDS011;62462;52.530;21.682;2023-03-29T03:08:03;23.97;;;9.57;;
74100;SDS011;62462;52.530;21.682;2023-03-29T03:10:31;20.10;;;7.53;;
74100;SDS011;62462;52.530;21.682;2023-03-29T03:12:58;36.80;;;13.57;;
74100;SDS011;62462;52.530;21.682;2023-03-29T03:15:25;37.37;;;14.00;;
74100;SDS011;62462;52.530;21.682;2023-03-29T03:17:51;33.13;;;12.43;;
74100;SDS011;62462;52.530;21.682;2023-03-29T03:20:18;26.20;;;10.13;;
74100;SDS011;62462;52.530;21.682;2023-03-29T03:22:46;26.43;;;9.40;;
74100;SDS011;62462;52.530;21.682;2023-03-29T03:25:17;39.50;;;12.67;;
74100;SDS011;62462;52.530;21.682;2023-03-29T03:27:45;33.10;;;11.10;;
74100;SDS011;62462;52.530;21.682;2023-03-29T03:30:12;24.47;;;8.80;;
74100;SDS011;62462;52.530;21.682;2023-03-29T03:32:38;22.80;;;8.70;;
74100;SDS011;62462;52.530;21.682;2023-03-29T03:35:05;30.67;;;11.60;;
74100;SDS011;62462;52.530;21.682;2023-03-29T03:37:31;29.93;;;9.23;;
74100;SDS011;62462;52.530;21.682;2023-03-29T03:39:57;37.63;;;12.30;;
74100;SDS011;62462;52.530;21.682;2023-03-29T03:42:26;38.03;;;12.57;;
74100;SDS011;62462;52.530;21.682;2023-03-29T03:44:53;38.17;;;12.57;;
74100;SDS011;62462;52.530;21.682;2023-03-29T03:47:19;26.53;;;9.00;;
74100;SDS011;62462;52.530;21.682;2023-03-29T03:49:45;44.87;;;15.50;;
74100;SDS011;62462;52.530;21.682;2023-03-29T03:52:11;35.93;;;12.93;;
74100;SDS011;62462;52.530;21.682;2023-03-29T03:54:37;27.30;;;9.00;;
74100;SDS011;62462;52.530;21.682;2023-03-29T03:57:03;29.33;;;10.60;;
74100;SDS011;62462;52.530;21.682;2023-03-29T03:59:28;18.27;;;5.83;;
74100;SDS011;62462;52.530;21.682;2023-03-29T04:01:54;21.83;;;7.80;;
74100;SDS011;62462;52.530;21.682;2023-03-29T04:04:20;20.20;;;7.77;;
74100;SDS011;62462;52.530;21.682;2023-03-29T04:06:47;24.03;;;9.13;;
74100;SDS011;62462;52.530;21.682;2023-03-29T04:09:14;19.53;;;7.00;;
74100;SDS011;62462;52.530;21.682;2023-03-29T04:11:40;15.83;;;5.20;;
74100;SDS011;62462;52.530;21.682;2023-03-29T04:14:06;17.47;;;7.20;;
74100;SDS011;62462;52.530;21.682;2023-03-29T04:16:32;28.77;;;9.60;;
74100;SDS011;62462;52.530;21.682;2023-03-29T04:18:58;16.60;;;6.50;;
74100;SDS011;62462;52.530;21.682;2023-03-29T04:21:24;21.63;;;6.97;;
74100;SDS011;62462;52.530;21.682;2023-03-29T04:23:50;32.20;;;11.37;;
74100;SDS011;62462;52.530;21.682;2023-03-29T04:26:16;23.73;;;8.80;;
74100;SDS011;62462;52.530;21.682;2023-03-29T04:28:42;26.40;;;9.47;;
74100;SDS011;62462;52.530;21.682;2023-03-29T04:31:11;30.53;;;10.60;;
74100;SDS011;62462;52.530;21.682;2023-03-29T04:33:38;20.57;;;8.80;;
74100;SDS011;62462;52.530;21.682;2023-03-29T04:36:04;25.10;;;10.37;;
74100;SDS011;62462;52.530;21.682;2023-03-29T04:38:31;16.20;;;7.13;;
74100;SDS011;62462;52.530;21.682;2023-03-29T04:41:00;19.03;;;8.93;;
74100;SDS011;62462;52.530;21.682;2023-03-29T04:43:28;18.53;;;7.67;;
74100;SDS011;62462;52.530;21.682;2023-03-29T04:45:55;12.97;;;6.37;;
74100;SDS011;62462;52.530;21.682;2023-03-29T04:48:22;44.63;;;18.03;;
74100;SDS011;62462;52.530;21.682;2023-03-29T04:50:48;23.10;;;11.63;;
74100;SDS011;62462;52.530;21.682;2023-03-29T04:53:14;22.20;;;9.33;;
74100;SDS011;62462;52.530;21.682;2023-03-29T04:55:41;16.67;;;7.23;;
74100;SDS011;62462;52.530;21.682;2023-03-29T04:58:07;14.60;;;7.07;;
74100;SDS011;62462;52.530;21.682;2023-03-29T05:00:34;17.60;;;6.90;;
74100;SDS011;62462;52.530;21.682;2023-03-29T05:03:00;14.83;;;6.83;;
74100;SDS011;62462;52.530;21.682;2023-03-29T05:05:26;18.57;;;7.10;;
74100;SDS011;62462;52.530;21.682;2023-03-29T05:07:52;14.73;;;7.83;;
74100;SDS011;62462;52.530;21.682;2023-03-29T05:10:18;20.40;;;8.50;;
74100;SDS011;62462;52.530;21.682;2023-03-29T05:12:44;16.47;;;7.53;;
74100;SDS011;62462;52.530;21.682;2023-03-29T05:15:11;14.83;;;6.70;;
74100;SDS011;62462;52.530;21.682;2023-03-29T05:17:37;18.50;;;8.10;;
74100;SDS011;62462;52.530;21.682;2023-03-29T05:20:03;18.80;;;7.83;;
74100;SDS011;62462;52.530;21.682;2023-03-29T05:22:36;16.08;;;6.55;;
74100;SDS011;62462;52.530;21.682;2023-03-29T05:25:03;16.13;;;6.83;;
74100;SDS011;62462;52.530;21.682;2023-03-29T05:27:30;22.70;;;8.23;;
74100;SDS011;62462;52.530;21.682;2023-03-29T05:29:57;20.23;;;7.93;;
74100;SDS011;62462;52.530;21.682;2023-03-29T05:32:23;15.87;;;7.53;;
74100;SDS011;62462;52.530;21.682;2023-03-29T05:34:49;18.90;;;7.23;;
74100;SDS011;62462;52.530;21.682;2023-03-29T05:37:15;20.30;;;8.00;;
74100;SDS011;62462;52.530;21.682;2023-03-29T05:39:41;14.53;;;5.77;;
74100;SDS011;62462;52.530;21.682;2023-03-29T05:42:07;19.00;;;6.53;;
74100;SDS011;62462;52.530;21.682;2023-03-29T05:44:36;18.73;;;7.50;;
74100;SDS011;62462;52.530;21.682;2023-03-29T05:47:02;15.90;;;6.87;;
74100;SDS011;62462;52.530;21.682;2023-03-29T05:49:28;42.43;;;15.53;;
74100;SDS011;62462;52.530;21.682;2023-03-29T05:51:53;23.00;;;7.70;;
74100;SDS011;62462;52.530;21.682;2023-03-29T05:54:21;21.23;;;8.20;;
74100;SDS011;62462;52.530;21.682;2023-03-29T05:56:48;16.13;;;6.20;;
74100;SDS011;62462;52.530;21.682;2023-03-29T05:59:14;17.03;;;6.70;;
74100;SDS011;62462;52.530;21.682;2023-03-29T06:01:41;14.27;;;5.67;;
74100;SDS011;62462;52.530;21.682;2023-03-29T06:04:11;21.57;;;7.17;;
74100;SDS011;62462;52.530;21.682;2023-03-29T06:06:37;22.80;;;8.73;;
74100;SDS011;62462;52.530;21.682;2023-03-29T06:09:03;17.00;;;7.20;;
74100;SDS011;62462;52.530;21.682;2023-03-29T06:11:30;20.17;;;8.70;;
74100;SDS011;62462;52.530;21.682;2023-03-29T06:13:57;16.60;;;6.60;;
74100;SDS011;62462;52.530;21.682;2023-03-29T06:16:23;16.70;;;5.93;;
74100;SDS011;62462;52.530;21.682;2023-03-29T06:18:49;11.20;;;5.40;;
74100;SDS011;62462;52.530;21.682;2023-03-29T06:21:16;19.27;;;6.67;;
74100;SDS011;62462;52.530;21.682;2023-03-29T06:23:41;22.07;;;7.63;;
74100;SDS011;62462;52.530;21.682;2023-03-29T06:26:07;27.77;;;13.63;;
74100;SDS011;62462;52.530;21.682;2023-03-29T06:28:34;22.40;;;8.23;;
74100;SDS011;62462;52.530;21.682;2023-03-29T06:31:00;16.27;;;7.57;;
74100;SDS011;62462;52.530;21.682;2023-03-29T06:33:29;19.60;;;8.20;;
74100;SDS011;62462;52.530;21.682;2023-03-29T06:35:56;17.70;;;7.57;;
74100;SDS011;62462;52.530;21.682;2023-03-29T06:38:23;18.30;;;6.93;;
74100;SDS011;62462;52.530;21.682;2023-03-29T06:40:50;20.33;;;6.93;;
74100;SDS011;62462;52.530;21.682;2023-03-29T06:43:23;20.97;;;6.27;;
74100;SDS011;62462;52.530;21.682;2023-03-29T06:45:50;17.23;;;7.93;;
74100;SDS011;62462;52.530;21.682;2023-03-29T06:48:16;18.53;;;8.53;;
74100;SDS011;62462;52.530;21.682;2023-03-29T06:50:41;14.63;;;6.70;;
74100;SDS011;62462;52.530;21.682;2023-03-29T06:53:07;16.60;;;6.53;;
74100;SDS011;62462;52.530;21.682;2023-03-29T06:55:33;12.97;;;6.63;;
74100;SDS011;62462;52.530;21.682;2023-03-29T06:58:00;16.00;;;7.00;;
74100;SDS011;62462;52.530;21.682;2023-03-29T07:00:26;16.13;;;6.17;;
74100;SDS011;62462;52.530;21.682;2023-03-29T07:02:55;18.90;;;6.43;;
74100;SDS011;62462;52.530;21.682;2023-03-29T07:05:24;14.03;;;5.50;;
74100;SDS011;62462;52.530;21.682;2023-03-29T07:07:52;14.17;;;6.30;;
74100;SDS011;62462;52.530;21.682;2023-03-29T07:10:27;14.00;;;6.20;;
74100;SDS011;62462;52.530;21.682;2023-03-29T07:15:25;13.07;;;4.73;;
74100;SDS011;62462;52.530;21.682;2023-03-29T07:17:52;11.57;;;5.50;;
74100;SDS011;62462;52.530;21.682;2023-03-29T07:20:18;11.17;;;4.00;;
74100;SDS011;62462;52.530;21.682;2023-03-29T07:22:48;11.17;;;5.00;;
74100;SDS011;62462;52.530;21.682;2023-03-29T07:25:18;10.07;;;4.43;;
74100;SDS011;62462;52.530;21.682;2023-03-29T07:27:46;15.07;;;5.40;;
74100;SDS011;62462;52.530;21.682;2023-03-29T07:30:14;12.77;;;4.73;;
74100;SDS011;62462;52.530;21.682;2023-03-29T07:32:43;14.30;;;5.17;;
74100;SDS011;62462;52.530;21.682;2023-03-29T07:35:11;12.83;;;5.33;;
74100;SDS011;62462;52.530;21.682;2023-03-29T07:37:38;10.97;;;4.53;;
74100;SDS011;62462;52.530;21.682;2023-03-29T07:40:08;10.27;;;4.23;;
74100;SDS011;62462;52.530;21.682;2023-03-29T07:42:43;10.40;;;4.35;;
74100;SDS011;62462;52.530;21.682;2023-03-29T07:45:11;12.60;;;5.60;;
74100;SDS011;62462;52.530;21.682;2023-03-29T07:47:38;10.13;;;3.80;;
74100;SDS011;62462;52.530;21.682;2023-03-29T07:50:05;20.73;;;6.77;;
74100;SDS011;62462;52.530;21.682;2023-03-29T07:52:33;13.43;;;4.00;;
74100;SDS011;62462;52.530;21.682;2023-03-29T07:54:59;15.00;;;5.80;;
74100;SDS011;62462;52.530;21.682;2023-03-29T07:57:25;9.13;;;4.25;;
74100;SDS011;62462;52.530;21.682;2023-03-29T07:59:52;9.43;;;4.05;;
74100;SDS011;62462;52.530;21.682;2023-03-29T08:02:18;8.35;;;3.30;;
74100;SDS011;62462;52.530;21.682;2023-03-29T08:04:45;11.65;;;4.03;;
74100;SDS011;62462;52.530;21.682;2023-03-29T08:07:11;12.65;;;5.03;;
74100;SDS011;62462;52.530;21.682;2023-03-29T08:09:38;10.63;;;4.60;;
74100;SDS011;62462;52.530;21.682;2023-03-29T08:12:04;14.43;;;5.88;;
74100;SDS011;62462;52.530;21.682;2023-03-29T08:14:31;13.20;;;4.38;;
74100;SDS011;62462;52.530;21.682;2023-03-29T08:16:57;16.67;;;5.88;;
74100;SDS011;62462;52.530;21.682;2023-03-29T08:19:23;16.38;;;5.13;;
74100;SDS011;62462;52.530;21.682;2023-03-29T08:21:49;18.92;;;10.25;;
74100;SDS011;62462;52.530;21.682;2023-03-29T08:24:16;8.70;;;3.95;;
74100;SDS011;62462;52.530;21.682;2023-03-29T08:26:42;9.85;;;4.15;;
74100;SDS011;62462;52.530;21.682;2023-03-29T08:29:07;10.52;;;3.13;;
74100;SDS011;62462;52.530;21.682;2023-03-29T08:31:33;10.00;;;3.35;;
74100;SDS011;62462;52.530;21.682;2023-03-29T08:33:59;4.03;;;1.70;;
74100;SDS011;62462;52.530;21.682;2023-03-29T08:36:26;4.78;;;2.13;;
74100;SDS011;62462;52.530;21.682;2023-03-29T08:38:52;4.78;;;2.13;;
74100;SDS011;62462;52.530;21.682;2023-03-29T08:49:30;7.50;;;2.97;;
74100;SDS011;62462;52.530;21.682;2023-03-29T08:51:58;5.38;;;2.55;;
74100;SDS011;62462;52.530;21.682;2023-03-29T08:54:36;5.35;;;2.97;;
74100;SDS011;62462;52.530;21.682;2023-03-29T08:57:11;10.60;;;3.85;;
74100;SDS011;62462;52.530;21.682;2023-03-29T08:59:43;8.45;;;2.50;;
74100;SDS011;62462;52.530;21.682;2023-03-29T09:02:17;6.13;;;2.60;;
74100;SDS011;62462;52.530;21.682;2023-03-29T09:04:57;4.25;;;2.40;;
74100;SDS011;62462;52.530;21.682;2023-03-29T09:07:46;4.40;;;1.85;;
74100;SDS011;62462;52.530;21.682;2023-03-29T09:10:15;9.40;;;3.35;;
74100;SDS011;62462;52.530;21.682;2023-03-29T09:13:01;5.72;;;2.58;;
74100;SDS011;62462;52.530;21.682;2023-03-29T09:15:55;8.48;;;3.10;;
74100;SDS011;62462;52.530;21.682;2023-03-29T09:27:13;5.63;;;2.78;;
74100;SDS011;62462;52.530;21.682;2023-03-29T09:32:25;8.52;;;2.00;;
74100;SDS011;62462;52.530;21.682;2023-03-29T09:37:42;6.15;;;2.10;;
74100;SDS011;62462;52.530;21.682;2023-03-29T09:40:13;7.40;;;2.45;;
74100;SDS011;62462;52.530;21.682;2023-03-29T09:42:43;3.90;;;1.95;;
74100;SDS011;62462;52.530;21.682;2023-03-29T09:45:10;3.30;;;1.73;;
74100;SDS011;62462;52.530;21.682;2023-03-29T09:50:36;6.82;;;1.67;;
74100;SDS011;62462;52.530;21.682;2023-03-29T09:53:07;9.68;;;2.83;;
74100;SDS011;62462;52.530;21.682;2023-03-29T09:55:33;4.97;;;1.73;;
74100;SDS011;62462;52.530;21.682;2023-03-29T09:58:03;4.57;;;1.73;;
74100;SDS011;62462;52.530;21.682;2023-03-29T10:00:37;4.35;;;1.90;;
74100;SDS011;62462;52.530;21.682;2023-03-29T10:03:04;7.03;;;2.17;;
74100;SDS011;62462;52.530;21.682;2023-03-29T10:05:31;3.53;;;1.67;;
74100;SDS011;62462;52.530;21.682;2023-03-29T10:08:01;4.07;;;1.67;;
74100;SDS011;62462;52.530;21.682;2023-03-29T10:10:52;3.95;;;2.25;;
74100;SDS011;62462;52.530;21.682;2023-03-29T10:13:22;5.13;;;2.15;;
74100;SDS011;62462;52.530;21.682;2023-03-29T10:16:00;3.15;;;1.73;;
74100;SDS011;62462;52.530;21.682;2023-03-29T10:18:32;5.30;;;2.33;;
74100;SDS011;62462;52.530;21.682;2023-03-29T10:21:06;5.30;;;1.73;;
74100;SDS011;62462;52.530;21.682;2023-03-29T10:23:36;3.72;;;1.58;;
74100;SDS011;62462;52.530;21.682;2023-03-29T10:26:06;4.95;;;1.70;;
74100;SDS011;62462;52.530;21.682;2023-03-29T10:28:41;4.40;;;1.95;;
74100;SDS011;62462;52.530;21.682;2023-03-29T10:31:08;5.60;;;1.48;;
74100;SDS011;62462;52.530;21.682;2023-03-29T10:33:44;3.63;;;1.60;;
74100;SDS011;62462;52.530;21.682;2023-03-29T10:36:16;4.28;;;2.55;;
74100;SDS011;62462;52.530;21.682;2023-03-29T10:38:43;4.78;;;1.80;;
74100;SDS011;62462;52.530;21.682;2023-03-29T10:41:10;5.38;;;2.42;;
74100;SDS011;62462;52.530;21.682;2023-03-29T10:43:38;5.13;;;1.55;;
74100;SDS011;62462;52.530;21.682;2023-03-29T10:46:16;3.33;;;1.60;;
74100;SDS011;62462;52.530;21.682;2023-03-29T10:48:47;3.80;;;1.42;;
74100;SDS011;62462;52.530;21.682;2023-03-29T10:51:16;3.42;;;1.40;;
74100;SDS011;62462;52.530;21.682;2023-03-29T10:53:43;3.58;;;1.40;;
74100;SDS011;62462;52.530;21.682;2023-03-29T11:26:13;3.38;;;1.30;;
74100;SDS011;62462;52.530;21.682;2023-03-29T11:29:01;3.00;;;1.60;;
74100;SDS011;62462;52.530;21.682;2023-03-29T11:42:42;2.00;;;1.15;;
74100;SDS011;62462;52.530;21.682;2023-03-29T11:45:14;4.00;;;1.10;;
74100;SDS011;62462;52.530;21.682;2023-03-29T11:48:01;3.83;;;1.23;;
74100;SDS011;62462;52.530;21.682;2023-03-29T11:50:38;2.95;;;1.00;;
74100;SDS011;62462;52.530;21.682;2023-03-29T11:53:30;4.97;;;1.17;;
74100;SDS011;62462;52.530;21.682;2023-03-29T11:56:13;2.13;;;1.33;;
74100;SDS011;62462;52.530;21.682;2023-03-29T11:58:46;4.55;;;1.58;;
74100;SDS011;62462;52.530;21.682;2023-03-29T12:01:18;3.17;;;1.48;;
74100;SDS011;62462;52.530;21.682;2023-03-29T12:04:02;2.03;;;0.95;;
74100;SDS011;62462;52.530;21.682;2023-03-29T12:06:36;4.18;;;1.25;;
74100;SDS011;62462;52.530;21.682;2023-03-29T12:14:41;3.33;;;1.40;;
74100;SDS011;62462;52.530;21.682;2023-03-29T12:17:44;2.72;;;2.05;;
74100;SDS011;62462;52.530;21.682;2023-03-29T12:20:25;5.50;;;1.08;;
74100;SDS011;62462;52.530;21.682;2023-03-29T12:22:55;2.13;;;1.35;;
74100;SDS011;62462;52.530;21.682;2023-03-29T12:28:35;4.93;;;2.80;;
74100;SDS011;62462;52.530;21.682;2023-03-29T12:31:36;3.65;;;1.33;;
74100;SDS011;62462;52.530;21.682;2023-03-29T12:39:46;3.05;;;2.10;;
74100;SDS011;62462;52.530;21.682;2023-03-29T12:42:18;3.10;;;2.13;;
74100;SDS011;62462;52.530;21.682;2023-03-29T12:44:50;3.15;;;2.20;;
74100;SDS011;62462;52.530;21.682;2023-03-29T12:47:23;3.17;;;1.60;;
74100;SDS011;62462;52.530;21.682;2023-03-29T12:49:57;2.95;;;1.40;;
74100;SDS011;62462;52.530;21.682;2023-03-29T12:52:31;2.20;;;1.17;;
74100;SDS011;62462;52.530;21.682;2023-03-29T12:55:00;1.98;;;1.23;;
74100;SDS011;62462;52.530;21.682;2023-03-29T12:57:55;2.38;;;1.40;;
74100;SDS011;62462;52.530;21.682;2023-03-29T13:00:54;6.32;;;1.90;;
74100;SDS011;62462;52.530;21.682;2023-03-29T13:03:26;3.83;;;1.80;;
74100;SDS011;62462;52.530;21.682;2023-03-29T13:05:59;2.38;;;1.40;;
74100;SDS011;62462;52.530;21.682;2023-03-29T13:08:32;8.80;;;1.75;;
74100;SDS011;62462;52.530;21.682;2023-03-29T13:11:10;3.05;;;1.48;;
74100;SDS011;62462;52.530;21.682;2023-03-29T13:13:49;3.38;;;1.70;;
74100;SDS011;62462;52.530;21.682;2023-03-29T13:16:20;4.75;;;1.48;;
74100;SDS011;62462;52.530;21.682;2023-03-29T13:21:26;3.58;;;1.70;;
74100;SDS011;62462;52.530;21.682;2023-03-29T13:26:32;3.00;;;1.60;;
74100;SDS011;62462;52.530;21.682;2023-03-29T13:32:24;4.30;;;1.92;;
74100;SDS011;62462;52.530;21.682;2023-03-29T13:43:17;3.65;;;1.75;;
74100;SDS011;62462;52.530;21.682;2023-03-29T13:45:44;4.57;;;1.65;;
74100;SDS011;62462;52.530;21.682;2023-03-29T13:51:17;4.50;;;2.35;;
74100;SDS011;62462;52.530;21.682;2023-03-29T13:54:16;2.83;;;1.60;;
74100;SDS011;62462;52.530;21.682;2023-03-29T14:02:40;3.75;;;2.40;;
74100;SDS011;62462;52.530;21.682;2023-03-29T14:05:16;3.85;;;2.35;;
74100;SDS011;62462;52.530;21.682;2023-03-29T14:07:51;4.72;;;2.80;;
74100;SDS011;62462;52.530;21.682;2023-03-29T14:10:20;5.32;;;2.72;;
74100;SDS011;62462;52.530;21.682;2023-03-29T14:12:51;5.23;;;2.10;;
74100;SDS011;62462;52.530;21.682;2023-03-29T14:15:20;6.90;;;4.18;;
74100;SDS011;62462;52.530;21.682;2023-03-29T14:17:55;2.55;;;1.83;;
74100;SDS011;62462;52.530;21.682;2023-03-29T14:20:22;6.82;;;2.05;;
74100;SDS011;62462;52.530;21.682;2023-03-29T14:22:49;4.38;;;2.17;;
74100;SDS011;62462;52.530;21.682;2023-03-29T14:25:17;4.47;;;2.35;;
74100;SDS011;62462;52.530;21.682;2023-03-29T14:27:45;3.40;;;2.38;;
74100;SDS011;62462;52.530;21.682;2023-03-29T14:30:18;3.25;;;2.13;;
74100;SDS011;62462;52.530;21.682;2023-03-29T14:32:50;3.55;;;1.88;;
74100;SDS011;62462;52.530;21.682;2023-03-29T14:35:16;3.72;;;1.88;;
74100;SDS011;62462;52.530;21.682;2023-03-29T14:37:42;3.00;;;1.88;;
74100;SDS011;62462;52.530;21.682;2023-03-29T14:40:17;4.28;;;1.80;;
74100;SDS011;62462;52.530;21.682;2023-03-29T14:45:12;4.00;;;2.00;;
74100;SDS011;62462;52.530;21.682;2023-03-29T14:47:40;7.00;;;2.70;;
74100;SDS011;62462;52.530;21.682;2023-03-29T14:50:15;8.52;;;3.15;;
74100;SDS011;62462;52.530;21.682;2023-03-29T14:53:02;4.27;;;1.77;;
74100;SDS011;62462;52.530;21.682;2023-03-29T14:55:30;4.05;;;1.85;;
74100;SDS011;62462;52.530;21.682;2023-03-29T14:57:56;3.45;;;1.85;;
74100;SDS011;62462;52.530;21.682;2023-03-29T15:03:10;3.42;;;1.80;;
74100;SDS011;62462;52.530;21.682;2023-03-29T15:05:39;4.15;;;1.98;;
74100;SDS011;62462;52.530;21.682;2023-03-29T15:08:11;4.22;;;2.20;;
74100;SDS011;62462;52.530;21.682;2023-03-29T15:10:40;3.88;;;2.15;;
74100;SDS011;62462;52.530;21.682;2023-03-29T15:13:06;3.85;;;2.30;;
74100;SDS011;62462;52.530;21.682;2023-03-29T15:15:40;3.47;;;1.83;;
74100;SDS011;62462;52.530;21.682;2023-03-29T15:18:06;4.82;;;2.60;;
74100;SDS011;62462;52.530;21.682;2023-03-29T15:20:37;5.25;;;2.40;;
74100;SDS011;62462;52.530;21.682;2023-03-29T15:28:59;6.40;;;2.40;;
74100;SDS011;62462;52.530;21.682;2023-03-29T15:31:36;5.35;;;2.25;;
74100;SDS011;62462;52.530;21.682;2023-03-29T15:34:12;3.80;;;2.38;;
74100;SDS011;62462;52.530;21.682;2023-03-29T15:36:48;4.00;;;2.50;;
74100;SDS011;62462;52.530;21.682;2023-03-29T15:39:15;4.07;;;2.22;;
74100;SDS011;62462;52.530;21.682;2023-03-29T15:41:43;3.95;;;2.25;;
74100;SDS011;62462;52.530;21.682;2023-03-29T15:44:13;4.93;;;2.83;;
74100;SDS011;62462;52.530;21.682;2023-03-29T15:46:43;4.30;;;2.60;;
74100;SDS011;62462;52.530;21.682;2023-03-29T15:49:10;4.45;;;2.60;;
74100;SDS011;62462;52.530;21.682;2023-03-29T15:51:36;4.63;;;2.53;;
74100;SDS011;62462;52.530;21.682;2023-03-29T15:54:03;6.65;;;2.60;;
74100;SDS011;62462;52.530;21.682;2023-03-29T15:56:29;5.35;;;3.03;;
74100;SDS011;62462;52.530;21.682;2023-03-29T15:59:01;7.97;;;2.63;;
74100;SDS011;62462;52.530;21.682;2023-03-29T16:01:32;4.40;;;2.80;;
74100;SDS011;62462;52.530;21.682;2023-03-29T16:06:28;9.45;;;3.00;;
74100;SDS011;62462;52.530;21.682;2023-03-29T16:08:55;5.55;;;2.70;;
74100;SDS011;62462;52.530;21.682;2023-03-29T16:11:21;4.35;;;2.25;;
74100;SDS011;62462;52.530;21.682;2023-03-29T16:13:49;3.22;;;2.15;;
74100;SDS011;62462;52.530;21.682;2023-03-29T16:16:15;6.07;;;2.65;;
74100;SDS011;62462;52.530;21.682;2023-03-29T16:18:41;5.03;;;2.38;;
74100;SDS011;62462;52.530;21.682;2023-03-29T16:21:09;5.68;;;2.78;;
74100;SDS011;62462;52.530;21.682;2023-03-29T16:23:37;5.20;;;2.38;;
74100;SDS011;62462;52.530;21.682;2023-03-29T16:26:03;4.55;;;2.47;;
74100;SDS011;62462;52.530;21.682;2023-03-29T16:28:30;6.30;;;3.92;;
74100;SDS011;62462;52.530;21.682;2023-03-29T16:30:57;5.95;;;2.97;;
74100;SDS011;62462;52.530;21.682;2023-03-29T16:33:23;4.38;;;2.60;;
74100;SDS011;62462;52.530;21.682;2023-03-29T16:35:48;4.20;;;2.00;;
74100;SDS011;62462;52.530;21.682;2023-03-29T16:38:15;4.95;;;2.55;;
74100;SDS011;62462;52.530;21.682;2023-03-29T16:40:40;4.93;;;2.22;;
74100;SDS011;62462;52.530;21.682;2023-03-29T16:43:11;4.55;;;2.40;;
74100;SDS011;62462;52.530;21.682;2023-03-29T16:45:41;6.00;;;2.95;;
74100;SDS011;62462;52.530;21.682;2023-03-29T16:48:11;5.72;;;2.85;;
74100;SDS011;62462;52.530;21.682;2023-03-29T16:50:38;8.27;;;3.22;;
74100;SDS011;62462;52.530;21.682;2023-03-29T16:53:04;7.07;;;3.15;;
74100;SDS011;62462;52.530;21.682;2023-03-29T16:55:30;6.80;;;3.05;;
74100;SDS011;62462;52.530;21.682;2023-03-29T16:57:55;8.20;;;4.05;;
74100;SDS011;62462;52.530;21.682;2023-03-29T17:00:22;8.13;;;4.10;;
74100;SDS011;62462;52.530;21.682;2023-03-29T17:02:47;11.35;;;4.43;;
74100;SDS011;62462;52.530;21.682;2023-03-29T17:05:13;15.18;;;6.10;;